createdAt,value
2022-12-03T00:01:28.212Z,3.50
2022-12-03T00:03:58.425Z,3.60
2022-12-03T00:06:30.144Z,3.60
2022-12-03T00:09:00.277Z,3.70
2022-12-03T00:11:27.515Z,3.80
2022-12-03T00:13:55.150Z,3.60
2022-12-03T00:16:22.595Z,3.60
2022-12-03T00:18:49.863Z,3.60
2022-12-03T00:21:17.130Z,3.60
2022-12-03T00:23:44.807Z,3.80
2022-12-03T00:26:12.008Z,3.80
2022-12-03T00:28:40.151Z,3.70
2022-12-03T00:31:07.499Z,3.60
2022-12-03T00:33:35.265Z,3.50
2022-12-03T00:36:02.549Z,3.60
2022-12-03T00:38:37.011Z,3.60
2022-12-03T00:41:04.384Z,3.60
2022-12-03T00:43:32.069Z,3.60
2022-12-03T00:45:59.380Z,3.60
2022-12-03T00:48:26.854Z,3.70
2022-12-03T00:50:54.150Z,3.70
2022-12-03T00:53:21.588Z,3.60
2022-12-03T00:55:51.686Z,3.60
2022-12-03T00:58:21.957Z,3.60
2022-12-03T01:00:49.196Z,3.50
2022-12-03T01:03:19.001Z,3.50
2022-12-03T01:05:46.213Z,3.40
2022-12-03T01:08:15.961Z,3.50
2022-12-03T01:10:43.221Z,3.50
2022-12-03T01:13:10.613Z,3.60
2022-12-03T01:15:37.883Z,3.60
2022-12-03T01:18:07.329Z,3.60
2022-12-03T01:20:36.372Z,3.50
2022-12-03T01:23:03.633Z,3.60
2022-12-03T01:25:33.933Z,3.60
2022-12-03T01:28:01.598Z,3.60
2022-12-03T01:30:51.373Z,3.60
2022-12-03T01:33:18.592Z,3.60
2022-12-03T01:35:48.525Z,3.60
2022-12-03T01:38:16.264Z,3.60
2022-12-03T01:40:45.665Z,3.70
2022-12-03T01:43:12.909Z,3.70
2022-12-03T01:45:40.193Z,3.60
2022-12-03T01:48:12.052Z,3.50
2022-12-03T01:50:39.301Z,3.40
2022-12-03T01:53:06.555Z,3.40
2022-12-03T01:55:33.802Z,3.50
2022-12-03T01:58:02.395Z,3.60
2022-12-03T02:00:30.659Z,3.50
2022-12-03T02:03:03.893Z,3.50
2022-12-03T02:05:32.171Z,3.50
2022-12-03T02:08:02.449Z,3.60
2022-12-03T02:10:34.749Z,3.60
2022-12-03T02:13:10.720Z,3.50
2022-12-03T02:15:40.338Z,3.40
2022-12-03T02:18:11.350Z,3.40
2022-12-03T02:20:50.346Z,3.40
2022-12-03T02:23:41.537Z,3.40
2022-12-03T02:26:09.195Z,3.30
2022-12-03T02:28:38.069Z,3.30
2022-12-03T02:31:05.990Z,3.30
2022-12-03T02:33:36.442Z,3.30
2022-12-03T02:36:04.391Z,3.20
2022-12-03T02:38:35.064Z,3.10
2022-12-03T02:41:09.405Z,3.20
2022-12-03T02:43:37.810Z,3.10
2022-12-03T02:46:07.840Z,3.20
2022-12-03T02:48:37.572Z,3.20
2022-12-03T02:51:08.702Z,3.20
2022-12-03T02:53:42.436Z,3.20
2022-12-03T02:56:13.708Z,3.30
2022-12-03T02:58:43.251Z,3.30
2022-12-03T03:01:11.256Z,3.40
2022-12-03T03:03:41.518Z,3.50
2022-12-03T03:06:09.818Z,3.50
2022-12-03T03:08:39.246Z,3.60
2022-12-03T03:11:06.469Z,3.50
2022-12-03T03:13:37.441Z,3.60
2022-12-03T03:16:06.122Z,3.50
2022-12-03T03:18:34.275Z,3.60
2022-12-03T03:21:02.227Z,3.70
2022-12-03T03:23:29.649Z,3.70
2022-12-03T03:26:08.059Z,3.60
2022-12-03T03:28:41.709Z,3.70
2022-12-03T03:31:13.718Z,3.80
2022-12-03T03:33:43.103Z,3.80
2022-12-03T03:36:12.815Z,3.80
2022-12-03T03:38:41.076Z,3.70
2022-12-03T03:41:10.378Z,3.80
2022-12-03T03:43:41.116Z,3.70
2022-12-03T03:46:09.162Z,3.60
2022-12-03T03:48:37.267Z,3.60
2022-12-03T03:51:09.281Z,3.70
2022-12-03T03:53:40.042Z,3.70
2022-12-03T03:56:09.248Z,3.60
2022-12-03T03:58:37.095Z,3.60
2022-12-03T04:01:07.009Z,3.60
2022-12-03T04:03:34.764Z,3.50
2022-12-03T04:06:02.925Z,3.50
2022-12-03T04:08:30.379Z,3.50
2022-12-03T04:11:18.560Z,3.70
2022-12-03T04:13:46.278Z,3.60
2022-12-03T04:16:13.972Z,3.50
2022-12-03T04:18:44.802Z,3.40
2022-12-03T04:21:32.959Z,3.30
2022-12-03T04:24:00.798Z,3.30
2022-12-03T04:26:46.457Z,3.30
2022-12-03T04:29:14.009Z,3.30
2022-12-03T04:32:00.135Z,3.50
2022-12-03T04:35:08.232Z,3.40
2022-12-03T04:37:35.478Z,3.50
2022-12-03T04:40:22.765Z,3.50
2022-12-03T04:42:54.881Z,3.40
2022-12-03T04:45:22.075Z,3.50
2022-12-03T04:47:49.299Z,3.60
2022-12-03T04:50:18.877Z,3.70
2022-12-03T04:52:46.178Z,3.70
2022-12-03T04:55:13.390Z,3.70
2022-12-03T04:57:40.985Z,3.50
2022-12-03T05:00:10.877Z,3.50
2022-12-03T05:02:40.635Z,3.50
2022-12-03T05:05:08.447Z,3.40
2022-12-03T05:07:37.990Z,3.40
2022-12-03T05:10:06.245Z,3.40
2022-12-03T05:12:36.024Z,3.50
2022-12-03T05:15:06.631Z,3.60
2022-12-03T05:17:33.875Z,3.50
2022-12-03T05:20:19.499Z,3.50
2022-12-03T05:22:46.905Z,3.50
2022-12-03T05:25:14.291Z,3.50
2022-12-03T05:27:41.518Z,3.50
2022-12-03T05:30:09.321Z,3.40
2022-12-03T05:32:38.725Z,3.40
2022-12-03T05:35:06.300Z,3.40
2022-12-03T05:37:33.557Z,3.40
2022-12-03T05:40:01.181Z,3.30
2022-12-03T05:42:46.670Z,3.30
2022-12-03T05:45:13.927Z,3.40
2022-12-03T05:47:41.139Z,3.30
2022-12-03T05:50:08.610Z,3.20
2022-12-03T05:52:35.877Z,3.30
2022-12-03T05:55:03.264Z,3.30
2022-12-03T05:57:32.966Z,3.30
2022-12-03T06:00:00.225Z,3.30
2022-12-03T06:02:30.255Z,3.30
2022-12-03T06:04:57.587Z,3.30
2022-12-03T06:07:26.927Z,3.30
2022-12-03T06:09:57.129Z,3.30
2022-12-03T06:12:24.364Z,3.20
2022-12-03T06:14:52.717Z,3.20
2022-12-03T06:17:22.301Z,3.20
2022-12-03T06:19:49.819Z,3.10
2022-12-03T06:22:17.588Z,3.20
2022-12-03T06:24:47.383Z,3.20
2022-12-03T06:27:14.785Z,3.30
2022-12-03T06:29:42.094Z,3.20
2022-12-03T06:32:09.846Z,3.30
2022-12-03T06:34:37.520Z,3.30
2022-12-03T06:37:04.891Z,3.40
2022-12-03T06:39:32.091Z,3.50
2022-12-03T06:41:59.284Z,3.50
2022-12-03T06:44:26.502Z,3.50
2022-12-03T06:46:53.946Z,3.60
2022-12-03T06:49:21.762Z,3.70
2022-12-03T06:51:48.955Z,3.80
2022-12-03T06:54:16.222Z,3.80
2022-12-03T06:56:45.405Z,3.70
2022-12-03T06:59:13.984Z,3.70
2022-12-03T07:01:44.407Z,3.70
2022-12-03T07:04:11.736Z,3.70
2022-12-03T07:06:39.901Z,3.70
2022-12-03T07:09:07.110Z,3.70
2022-12-03T07:11:40.360Z,3.80
2022-12-03T07:14:11.454Z,3.70
2022-12-03T07:16:40.016Z,3.80
2022-12-03T07:19:10.419Z,3.70
2022-12-03T07:21:38.046Z,3.80
2022-12-03T07:24:08.384Z,3.80
2022-12-03T07:26:38.661Z,3.70
2022-12-03T07:29:05.952Z,3.70
2022-12-03T07:31:33.299Z,3.80
2022-12-03T07:34:02.847Z,3.80
2022-12-03T07:36:32.487Z,3.90
2022-12-03T07:39:00.141Z,3.90
2022-12-03T07:41:27.813Z,3.80
2022-12-03T07:43:55.014Z,3.70
2022-12-03T07:46:22.710Z,3.70
2022-12-03T07:48:52.449Z,3.70
2022-12-03T07:51:25.076Z,3.70
2022-12-03T07:53:57.501Z,3.80
2022-12-03T07:56:27.469Z,3.80
2022-12-03T07:58:55.206Z,3.60
2022-12-03T08:01:23.177Z,3.60
2022-12-03T08:03:52.698Z,3.60
2022-12-03T08:06:19.960Z,3.70
2022-12-03T08:08:47.185Z,3.60
2022-12-03T08:11:15.659Z,3.60
2022-12-03T08:13:43.101Z,3.50
2022-12-03T08:16:16.943Z,3.60
2022-12-03T08:18:47.868Z,3.60
2022-12-03T08:21:18.003Z,3.70
2022-12-03T08:23:45.985Z,3.90
2022-12-03T08:26:22.955Z,3.90
2022-12-03T08:28:53.453Z,3.90
2022-12-03T08:31:32.391Z,3.90
2022-12-03T08:34:34.113Z,4.00
2022-12-03T08:37:16.677Z,4.00
2022-12-03T08:39:48.349Z,3.90
2022-12-03T08:42:41.850Z,4.00
2022-12-03T08:45:40.786Z,4.00
2022-12-03T08:48:34.225Z,4.10
2022-12-03T08:51:25.024Z,4.00
2022-12-03T08:54:01.488Z,3.90
2022-12-03T08:56:33.408Z,3.90
2022-12-03T08:59:28.721Z,4.10
2022-12-03T09:01:58.578Z,4.20
2022-12-03T09:04:34.922Z,4.30
2022-12-03T09:07:04.317Z,4.30
2022-12-03T09:09:36.452Z,4.10
2022-12-03T09:12:06.826Z,4.10
2022-12-03T09:14:36.346Z,4.20
2022-12-03T09:17:06.440Z,4.40
2022-12-03T09:19:33.794Z,4.30
2022-12-03T09:22:01.765Z,4.50
2022-12-03T09:24:29.588Z,4.50
2022-12-03T09:26:59.738Z,4.60
2022-12-03T09:29:26.932Z,4.60
2022-12-03T09:31:54.220Z,4.60
2022-12-03T09:34:21.601Z,4.50
2022-12-03T09:36:48.808Z,4.70
2022-12-03T09:39:16.030Z,4.80
2022-12-03T09:41:46.398Z,4.80
2022-12-03T09:44:17.849Z,4.90
2022-12-03T09:46:47.855Z,5.00
2022-12-03T09:49:18.156Z,4.90
2022-12-03T09:51:48.125Z,4.90
2022-12-03T09:54:47.357Z,4.90
2022-12-03T09:57:16.767Z,4.80
2022-12-03T09:59:44.526Z,4.80
2022-12-03T10:02:22.661Z,4.90
2022-12-03T10:04:53.117Z,4.90
2022-12-03T10:07:20.974Z,4.80
2022-12-03T10:09:50.764Z,4.90
2022-12-03T10:12:25.791Z,5.10
2022-12-03T10:14:55.927Z,5.00
2022-12-03T10:17:23.405Z,4.90
2022-12-03T10:19:51.415Z,5.00
2022-12-03T10:22:21.083Z,5.10
2022-12-03T10:25:09.308Z,4.90
2022-12-03T10:27:36.532Z,4.90
2022-12-03T10:30:14.283Z,5.00
2022-12-03T10:32:52.004Z,5.00
2022-12-03T10:35:21.308Z,5.10
2022-12-03T10:38:02.908Z,5.10
2022-12-03T10:40:36.188Z,5.00
2022-12-03T10:43:23.962Z,5.10
2022-12-03T10:46:04.544Z,5.10
2022-12-03T10:48:32.080Z,5.10
2022-12-03T10:51:06.972Z,5.00
2022-12-03T10:53:37.528Z,5.10
2022-12-03T10:56:13.505Z,5.10
2022-12-03T10:58:42.137Z,5.00
2022-12-03T11:01:21.991Z,4.80
2022-12-03T11:03:49.747Z,4.80
2022-12-03T11:06:22.624Z,5.00
2022-12-03T11:09:02.687Z,5.20
2022-12-03T11:11:34.286Z,5.10
2022-12-03T11:14:06.469Z,5.30
2022-12-03T11:16:42.477Z,5.50
2022-12-03T11:19:41.930Z,5.70
2022-12-03T11:22:12.488Z,5.70
2022-12-03T11:24:40.659Z,5.70
2022-12-03T11:27:11.373Z,5.60
2022-12-03T11:30:01.099Z,5.60
2022-12-03T11:32:43.637Z,5.60
2022-12-03T11:35:16.137Z,5.30
2022-12-03T11:37:46.341Z,5.30
2022-12-03T11:40:19.512Z,5.30
2022-12-03T11:42:48.907Z,5.30
2022-12-03T11:45:21.611Z,5.10
2022-12-03T11:48:13.593Z,5.00
2022-12-03T11:50:44.515Z,5.00
2022-12-03T11:53:18.568Z,5.10
2022-12-03T11:56:06.083Z,5.10
2022-12-03T11:58:34.461Z,5.20
2022-12-03T12:01:04.296Z,5.40
2022-12-03T12:03:49.843Z,5.30
2022-12-03T12:06:20.838Z,5.20
2022-12-03T12:08:59.161Z,5.30
2022-12-03T12:11:34.676Z,5.30
2022-12-03T12:14:07.293Z,5.30
2022-12-03T12:17:03.242Z,5.30
2022-12-03T12:19:42.534Z,5.40
2022-12-03T12:22:14.402Z,5.50
2022-12-03T12:24:54.852Z,5.60
2022-12-03T12:27:45.516Z,5.60
2022-12-03T12:30:21.609Z,5.60
2022-12-03T12:33:14.265Z,5.60
2022-12-03T12:35:44.416Z,5.40
2022-12-03T12:38:21.670Z,5.30
2022-12-03T12:40:51.127Z,5.10
2022-12-03T12:43:26.025Z,5.00
2022-12-03T12:46:05.691Z,5.00
2022-12-03T12:48:46.239Z,5.00
2022-12-03T12:51:18.660Z,4.90
2022-12-03T12:53:49.053Z,5.00
2022-12-03T12:56:27.124Z,5.00
2022-12-03T12:58:57.237Z,4.90
2022-12-03T13:01:32.292Z,4.90
2022-12-03T13:04:03.284Z,5.00
2022-12-03T13:06:32.164Z,5.00
2022-12-03T13:09:02.200Z,4.90
2022-12-03T13:11:45.752Z,4.90
2022-12-03T13:14:26.888Z,4.90
2022-12-03T13:16:55.999Z,5.00
2022-12-03T13:19:39.586Z,4.90
2022-12-03T13:22:21.254Z,4.90
2022-12-03T13:24:55.788Z,4.90
2022-12-03T13:27:32.718Z,5.00
2022-12-03T13:30:14.118Z,5.10
2022-12-03T13:32:46.406Z,5.00
2022-12-03T13:35:24.883Z,5.00
2022-12-03T13:37:55.040Z,5.10
2022-12-03T13:40:32.900Z,5.00
2022-12-03T13:43:04.429Z,4.90
2022-12-03T13:45:37.826Z,4.90
2022-12-03T13:48:22.498Z,4.80
2022-12-03T13:50:53.940Z,4.90
2022-12-03T13:53:23.870Z,4.80
2022-12-03T13:55:56.924Z,4.80
2022-12-03T13:58:26.723Z,4.70
2022-12-03T14:00:56.434Z,4.70
2022-12-03T14:03:26.169Z,4.80
2022-12-03T14:05:53.925Z,4.90
2022-12-03T14:08:23.570Z,5.10
2022-12-03T14:10:59.930Z,4.90
2022-12-03T14:13:28.403Z,4.80
2022-12-03T14:16:00.710Z,4.80
2022-12-03T14:18:27.934Z,4.80
2022-12-03T14:20:57.256Z,4.90
2022-12-03T14:23:24.511Z,5.10
2022-12-03T14:25:54.596Z,5.00
2022-12-03T14:28:21.967Z,5.00
2022-12-03T14:30:52.091Z,4.70
2022-12-03T14:33:21.718Z,4.70
2022-12-03T14:35:54.221Z,4.60
2022-12-03T14:38:23.964Z,4.60
2022-12-03T14:40:53.377Z,4.70
2022-12-03T14:43:20.638Z,4.60
2022-12-03T14:45:48.476Z,4.60
2022-12-03T14:48:16.723Z,4.60
2022-12-03T14:50:43.943Z,4.50
2022-12-03T14:53:11.526Z,4.50
2022-12-03T14:55:38.776Z,4.50
2022-12-03T14:58:06.464Z,4.50
2022-12-03T15:00:36.509Z,4.60
2022-12-03T15:03:04.443Z,4.60
2022-12-03T15:05:31.834Z,4.50
2022-12-03T15:07:59.122Z,4.40
2022-12-03T15:10:28.913Z,4.40
2022-12-03T15:12:56.626Z,4.40
2022-12-03T15:15:24.316Z,4.30
2022-12-03T15:17:51.536Z,4.40
2022-12-03T15:20:19.623Z,4.40
2022-12-03T15:22:46.832Z,4.40
2022-12-03T15:25:14.624Z,4.50
2022-12-03T15:27:41.846Z,4.40
2022-12-03T15:30:11.706Z,4.30
2022-12-03T15:32:39.607Z,4.40
2022-12-03T15:35:10.220Z,4.40
2022-12-03T15:37:39.615Z,4.40
2022-12-03T15:40:07.892Z,4.50
2022-12-03T15:42:35.121Z,4.50
2022-12-03T15:45:05.057Z,4.60
2022-12-03T15:47:32.840Z,4.40
2022-12-03T15:50:02.759Z,4.50
2022-12-03T15:52:30.011Z,4.50
2022-12-03T15:54:57.806Z,4.60
2022-12-03T15:57:25.580Z,4.60
2022-12-03T15:59:57.788Z,4.50
2022-12-03T16:02:25.202Z,4.50
2022-12-03T16:04:52.433Z,4.50
2022-12-03T16:07:20.126Z,4.50
2022-12-03T16:09:47.397Z,4.40
2022-12-03T16:12:15.143Z,4.40
2022-12-03T16:14:42.856Z,4.40
2022-12-03T16:17:10.161Z,4.50
2022-12-03T16:19:38.288Z,4.50
2022-12-03T16:22:08.495Z,4.40
2022-12-03T16:24:35.806Z,4.50
2022-12-03T16:27:03.543Z,4.40
2022-12-03T16:29:30.920Z,4.30
2022-12-03T16:32:01.884Z,4.30
2022-12-03T16:34:30.232Z,4.20
2022-12-03T16:36:59.712Z,4.10
2022-12-03T16:39:29.080Z,4.10
2022-12-03T16:41:56.922Z,4.00
2022-12-03T16:44:43.805Z,3.90
2022-12-03T16:47:11.242Z,3.90
2022-12-03T16:49:38.920Z,4.00
2022-12-03T16:52:13.230Z,4.00
2022-12-03T16:54:40.968Z,4.00
2022-12-03T16:57:08.602Z,4.00
2022-12-03T16:59:38.301Z,4.20
2022-12-03T17:02:10.138Z,4.10
2022-12-03T17:04:37.881Z,4.10
2022-12-03T17:07:05.555Z,4.10
2022-12-03T17:09:35.302Z,4.20
2022-12-03T17:12:05.150Z,4.10
2022-12-03T17:14:33.598Z,4.20
2022-12-03T17:17:03.703Z,4.20
2022-12-03T17:19:30.895Z,4.10
2022-12-03T17:21:59.717Z,4.00
2022-12-03T17:24:27.069Z,3.90
2022-12-03T17:26:54.282Z,3.80
2022-12-03T17:29:23.739Z,3.80
2022-12-03T17:31:53.550Z,3.80
2022-12-03T17:34:21.255Z,3.80
2022-12-03T17:36:48.510Z,3.80
2022-12-03T17:39:16.243Z,3.90
2022-12-03T17:41:43.895Z,3.80
2022-12-03T17:44:19.285Z,3.70
2022-12-03T17:46:52.911Z,3.70
2022-12-03T17:49:26.905Z,3.70
2022-12-03T17:51:57.301Z,3.80
2022-12-03T17:54:43.173Z,3.70
2022-12-03T17:57:14.371Z,3.80
2022-12-03T17:59:41.764Z,3.90
2022-12-03T18:02:09.390Z,4.00
2022-12-03T18:04:37.138Z,3.90
2022-12-03T18:07:06.872Z,4.00
2022-12-03T18:09:34.572Z,4.00
2022-12-03T18:12:02.431Z,3.80
2022-12-03T18:14:29.711Z,3.70
2022-12-03T18:16:57.034Z,3.60
2022-12-03T18:19:29.417Z,3.60
2022-12-03T18:21:57.252Z,3.50
2022-12-03T18:24:27.473Z,3.50
2022-12-03T18:26:56.835Z,3.40
2022-12-03T18:29:27.078Z,3.50
2022-12-03T18:31:54.409Z,3.70
2022-12-03T18:34:23.931Z,3.70
2022-12-03T18:36:51.236Z,3.70
2022-12-03T18:39:29.048Z,3.70
2022-12-03T18:41:56.270Z,3.60
2022-12-03T18:44:23.572Z,3.70
2022-12-03T18:46:53.872Z,3.70
2022-12-03T18:49:22.464Z,3.60
2022-12-03T18:51:57.533Z,3.60
2022-12-03T18:54:27.115Z,3.70
2022-12-03T18:56:54.795Z,3.70
2022-12-03T18:59:24.694Z,3.70
2022-12-03T19:01:54.789Z,3.70
2022-12-03T19:04:22.679Z,3.80
2022-12-03T19:06:50.356Z,3.70
2022-12-03T19:09:18.162Z,3.60
2022-12-03T19:11:48.094Z,3.50
2022-12-03T19:14:15.389Z,3.50
2022-12-03T19:16:44.249Z,3.60
2022-12-03T19:19:12.017Z,3.60
2022-12-03T19:21:39.263Z,3.60
2022-12-03T19:26:55.478Z,3.60
2022-12-03T19:29:23.252Z,3.50
2022-12-03T19:31:51.930Z,3.50
2022-12-03T19:34:20.042Z,3.60
2022-12-03T19:36:47.803Z,3.60
2022-12-03T19:39:17.502Z,3.50
2022-12-03T19:41:45.421Z,3.50
2022-12-03T19:44:14.853Z,3.50
2022-12-03T19:46:42.994Z,3.40
2022-12-03T19:49:13.540Z,3.50
2022-12-03T19:51:40.776Z,3.40
2022-12-03T19:54:10.753Z,3.40
2022-12-03T19:56:38.668Z,3.40
2022-12-03T19:59:09.545Z,3.40
2022-12-03T20:01:40.380Z,3.30
2022-12-03T20:04:12.480Z,3.30
2022-12-03T20:06:40.804Z,3.40
2022-12-03T20:09:13.263Z,3.40
2022-12-03T20:11:41.672Z,3.40
2022-12-03T20:14:13.623Z,3.30
2022-12-03T20:16:41.827Z,3.30
2022-12-03T20:19:15.106Z,3.20
2022-12-03T20:21:43.634Z,3.30
2022-12-03T20:24:17.435Z,3.20
2022-12-03T20:26:47.315Z,3.20
2022-12-03T20:29:15.173Z,3.20
2022-12-03T20:31:42.979Z,3.20
2022-12-03T20:34:13.420Z,3.20
2022-12-03T20:36:40.709Z,3.20
2022-12-03T20:39:11.107Z,3.20
2022-12-03T20:41:38.554Z,3.30
2022-12-03T20:44:08.567Z,3.30
2022-12-03T20:46:36.292Z,3.50
2022-12-03T20:49:04.544Z,3.40
2022-12-03T20:51:33.032Z,3.30
2022-12-03T20:54:01.114Z,3.30
2022-12-03T20:56:34.573Z,3.30
2022-12-03T20:59:10.929Z,3.30
2022-12-03T21:01:38.568Z,3.20
2022-12-03T21:04:08.825Z,3.20
2022-12-03T21:06:37.002Z,3.20
2022-12-03T21:09:09.159Z,3.30
2022-12-03T21:11:41.631Z,3.30
2022-12-03T21:14:11.220Z,3.40
2022-12-03T21:17:07.131Z,3.30
2022-12-03T21:19:35.813Z,3.20
2022-12-03T21:22:03.042Z,3.20
2022-12-03T21:24:30.254Z,3.20
2022-12-03T21:26:58.013Z,3.20
2022-12-03T21:29:25.342Z,3.10
2022-12-03T21:31:52.575Z,3.10
2022-12-03T21:34:22.452Z,3.10
2022-12-03T21:36:49.692Z,3.10
2022-12-03T21:39:16.909Z,3.10
2022-12-03T21:42:33.353Z,3.10
2022-12-03T21:44:31.436Z,3.10
2022-12-03T21:47:09.670Z,3.20
2022-12-03T21:49:42.089Z,3.30
2022-12-03T21:52:11.896Z,3.20
2022-12-03T21:54:39.577Z,3.30
2022-12-03T21:57:07.244Z,3.30
2022-12-03T21:59:36.937Z,3.20
2022-12-03T22:02:04.372Z,3.30
2022-12-03T22:04:32.208Z,3.30
2022-12-03T22:06:59.960Z,3.20
2022-12-03T22:09:27.795Z,3.20
2022-12-03T22:11:56.909Z,3.20
2022-12-03T22:14:24.674Z,3.10
2022-12-03T22:16:52.352Z,3.00
2022-12-03T22:19:25.657Z,3.00
2022-12-03T22:21:53.210Z,2.90
2022-12-03T22:24:20.851Z,2.90
2022-12-03T22:26:48.189Z,2.90
2022-12-03T22:29:18.101Z,2.90
2022-12-03T22:31:45.922Z,3.00
2022-12-03T22:34:15.939Z,2.80
2022-12-03T22:36:43.198Z,2.80
2022-12-03T22:39:10.478Z,2.70
2022-12-03T22:41:37.720Z,2.80
2022-12-03T22:44:06.228Z,2.70
2022-12-03T22:46:36.248Z,2.50
2022-12-03T22:49:07.419Z,2.60
2022-12-03T22:51:37.965Z,2.40
2022-12-03T22:54:06.420Z,2.30
2022-12-03T22:56:37.349Z,2.20
2022-12-03T22:59:05.718Z,2.20
2022-12-03T23:01:36.741Z,2.20
2022-12-03T23:04:07.748Z,2.20
2022-12-03T23:06:39.873Z,2.20
2022-12-03T23:09:07.958Z,1.90
2022-12-03T23:11:36.075Z,2.00
2022-12-03T23:14:03.974Z,1.90
2022-12-03T23:16:33.094Z,1.90
2022-12-03T23:19:02.248Z,1.90
2022-12-03T23:21:32.955Z,2.00
2022-12-03T23:24:05.020Z,2.00
2022-12-03T23:26:39.447Z,1.90
2022-12-03T23:29:09.233Z,1.90
2022-12-03T23:31:37.087Z,1.90
2022-12-03T23:34:09.241Z,1.90
2022-12-03T23:36:36.586Z,1.90
2022-12-03T23:39:06.381Z,1.90
2022-12-03T23:41:34.098Z,1.90
2022-12-03T23:44:01.825Z,1.90
2022-12-03T23:46:29.193Z,1.90
2022-12-03T23:49:00.113Z,1.80
2022-12-03T23:51:27.397Z,1.80
2022-12-03T23:53:55.351Z,1.80
2022-12-03T23:56:29.099Z,1.70
2022-12-03T23:58:58.302Z,1.70
